Flight Track Log - Related Links

Times and Time Zones

All times are in EDT time to prevent confusion due to time zone crossing. See the UAL33 flight status page for this flight to view local times or setup timezone preferences in your user account.

Time Position Orientation Groundspeed Altitude Reporting Facility
EDT Latitude Longitude Course Direction KTS MPH feet Rate Location/Type
Wed 05:20:33 PM 29.9776 -95.3042 90° East 161 185 300  Level FlightAware ADS-B
Wed 05:20:38 PM 29.9778 -95.2999 87° East 163 188 500 2,727 Climbing FlightAware ADS-B
Wed 05:20:44 PM 29.9789 -95.2950 75° East 163 188 800 2,143 Climbing FlightAware ADS-B
Wed 05:20:52 PM 29.9819 -95.2891 60° Northeast 166 191 1,000 2,000 Climbing FlightAware ADS-B
Wed 05:20:56 PM 29.9841 -95.2867 43° Northeast 170 196 1,200 2,571 Climbing FlightAware ADS-B
Wed 05:20:59 PM 29.9865 -95.2849 33° Northeast 174 200 1,300 1,714 Climbing FlightAware ADS-B
Wed 05:21:03 PM 29.9896 -95.2834 23° Northeast 180 207 1,400 1,500 Climbing FlightAware ADS-B
Wed 05:21:07 PM 29.9924 -95.2825 16° North 188 216 1,500 857 Climbing FlightAware ADS-B
Wed 05:21:10 PM 29.9953 -95.2821 North 194 223 1,500 1,000 Level FlightAware ADS-B
Wed 05:21:13 PM 29.9981 -95.2818 North 199 229 1,600 1,714 Climbing FlightAware ADS-B
Wed 05:21:17 PM 30.0015 -95.2817 North 202 232 1,700 1,600 Climbing FlightAware ADS-B
Wed 05:21:28 PM 30.0130 -95.2817 360° North 222 255 2,000 2,000 Climbing FlightAware ADS-B
Wed 05:21:35 PM 30.0204 -95.2817 360° North 230 265 2,300 2,100 Climbing FlightAware ADS-B
Wed 05:21:48 PM 30.0352 -95.2818 360° North 250 288 2,700 2,069 Climbing FlightAware ADS-B
Wed 05:22:04 PM 30.0537 -95.2821 359° North 268 308 3,300 1,742 Climbing FlightAware ADS-B
Wed 05:22:19 PM 30.0731 -95.2824 359° North 270 311 3,600 390 Climbing FlightAware ADS-B
Wed 05:23:21 PM 30.1502 -95.2858 349° North 273 314 3,800 306 Climbing FlightAware ADS-B
Wed 05:23:57 PM 30.1950 -95.3012 343° North 275 316 4,100 1,500 Climbing FlightAware ADS-B
Wed 05:24:21 PM 30.2244 -95.3114 343° North 281 323 5,300 3,130 Climbing FlightAware ADS-B
Wed 05:24:43 PM 30.2525 -95.3196 347° North 286 329 6,500 3,188 Climbing FlightAware ADS-B
Wed 05:24:53 PM 30.2659 -95.3222 350° North 289 333 7,000 3,158 Climbing FlightAware ADS-B
Wed 05:25:02 PM 30.2782 -95.3232 358° North 290 334 7,500 3,158 Climbing FlightAware ADS-B
Wed 05:25:31 PM 30.3170 -95.3173 North 294 338 9,000 2,447 Climbing FlightAware ADS-B
Wed 05:26:18 PM 30.3834 -95.3039 10° North 335 386 10,600 2,260 Climbing FlightAware ADS-B
Wed 05:26:48 PM 30.4311 -95.2941 10° North 352 405 11,900 2,710 Climbing FlightAware ADS-B
Wed 05:27:20 PM 30.4822 -95.2839 10° North 368 423 13,400 2,190 Climbing FlightAware ADS-B
Wed 05:27:51 PM 30.5376 -95.2732 North 404 465 14,200 1,448 Climbing FlightAware ADS-B
Wed 05:28:18 PM 30.5889 -95.2666 North 435 501 14,800 1,421 Climbing FlightAware ADS-B
Wed 05:28:29 PM 30.6121 -95.2688 353° North 446 513 15,100 2,250 Climbing FlightAware ADS-B
Wed 05:28:42 PM 30.6386 -95.2755 348° North 452 520 15,700 2,027 Climbing FlightAware ADS-B
Wed 05:29:43 PM 30.7632 -95.3156 345° North 459 528 17,600 2,195 Climbing FlightAware ADS-B
Wed 05:30:45 PM 30.8942 -95.3578 344° North 470 541 20,200 2,190 Climbing FlightAware ADS-B
Wed 05:32:52 PM 31.1686 -95.4394 349° North 489 563 24,500 1,876 Climbing FlightAware ADS-B
Wed 05:37:44 PM 31.8460 -95.5010 356° North 498 573 33,300 1,793 Climbing FlightAware ADS-B
Wed 05:38:30 PM 31.9450 -95.5100 356° North 495 570 34,600 1,645 Climbing FlightAware ADS-B
Wed 05:39:48 PM 32.1290 -95.5270 356° North 491 565 36,700 1,512 Climbing FlightAware ADS-B
Wed 05:40:33 PM 32.2270 -95.5360 356° North 487 560 37,700 1,295 Climbing FlightAware ADS-B
Wed 05:41:16 PM 32.3260 -95.5450 356° North 485 558 38,600 1,215 Climbing FlightAware ADS-B
Wed 05:41:52 PM 32.4050 -95.5520 356° North 480 552 39,300 990 Climbing FlightAware ADS-B
Wed 05:42:53 PM 32.5420 -95.5650 355° North 480 552 40,200 839 Climbing FlightAware ADS-B
Wed 05:43:25 PM 32.6120 -95.5710 356° North 479 551 40,600 649 Climbing FlightAware ADS-B
Wed 05:44:07 PM 32.7060 -95.5800 355° North 478 550 41,000 286 Climbing FlightAware ADS-B
Wed 05:44:49 PM 32.7980 -95.5880 356° North 476 548 41,000  Level FlightAware ADS-B
Wed 05:45:33 PM 32.8940 -95.5970 355° North 474 545 41,000  Level FlightAware ADS-B
Wed 05:46:10 PM 32.9760 -95.6050 355° North 478 550 41,000  Level FlightAware ADS-B
Wed 05:46:57 PM 33.0800 -95.6140 356° North 478 550 41,000  Level FlightAware ADS-B
Wed 05:47:35 PM 33.1650 -95.6220 355° North 477 549 41,000  Level FlightAware ADS-B
Wed 05:48:21 PM 33.2660 -95.6320 355° North 476 548 41,000  Level FlightAware ADS-B
Wed 05:49:00 PM 33.3490 -95.6400 355° North 476 548 41,000  Level FlightAware ADS-B
Wed 05:49:44 PM 33.4460 -95.6490 356° North 476 548 41,000  Level FlightAware ADS-B
Wed 05:50:24 PM 33.5350 -95.6570 356° North 476 548 41,000  Level FlightAware ADS-B
Wed 05:51:09 PM 33.6360 -95.6660 356° North 476 548 41,000  Level FlightAware ADS-B
Wed 05:51:48 PM 33.7200 -95.6740 355° North 478 550 41,000  Level FlightAware ADS-B
Wed 05:52:24 PM 33.7990 -95.6820 355° North 478 550 41,000  Level FlightAware ADS-B
Wed 05:53:06 PM 33.8910 -95.6910 355° North 475 547 41,000  Level FlightAware ADS-B
Wed 05:53:50 PM 33.9880 -95.7000 356° North 475 547 41,000  Level FlightAware ADS-B
Wed 05:54:43 PM 34.1050 -95.7110 356° North 474 545 41,000  Level FlightAware ADS-B
Wed 05:55:24 PM 34.1940 -95.7190 356° North 473 544 41,000  Level FlightAware ADS-B
Wed 05:56:09 PM 34.2910 -95.7290 355° North 471 542 41,000  Level FlightAware ADS-B
Wed 05:56:50 PM 34.3790 -95.7370 356° North 473 544 41,000  Level FlightAware ADS-B
Wed 05:57:26 PM 34.4580 -95.7450 355° North 473 544 41,000  Level FlightAware ADS-B
Wed 05:58:07 PM 34.5490 -95.7530 356° North 474 545 41,000  Level FlightAware ADS-B
Wed 05:58:50 PM 34.6410 -95.7620 355° North 475 547 41,000  Level FlightAware ADS-B
Wed 05:59:32 PM 34.7350 -95.7710 356° North 472 543 41,000  Level FlightAware ADS-B
Wed 06:00:24 PM 34.8450 -95.7680 North 479 551 41,000  Level FlightAware ADS-B
Wed 06:00:40 PM 34.8780 -95.7470 28° Northeast 483 556 41,000  Level FlightAware ADS-B
Wed 06:01:23 PM 34.9510 -95.6650 43° Northeast 488 562 41,000  Level FlightAware ADS-B
Wed 06:02:20 PM 35.0370 -95.5640 44° Northeast 487 560 41,000  Level FlightAware ADS-B
Wed 06:02:57 PM 35.0880 -95.5040 44° Northeast 487 560 41,000  Level FlightAware ADS-B
Wed 06:03:36 PM 35.1670 -95.4120 44° Northeast 488 562 41,000  Level FlightAware ADS-B
Wed 06:04:26 PM 35.2500 -95.3150 44° Northeast 490 564 41,000  Level FlightAware ADS-B
Wed 06:05:10 PM 35.3220 -95.2300 44° Northeast 489 563 41,000  Level FlightAware ADS-B
Wed 06:06:05 PM 35.4080 -95.1290 44° Northeast 487 560 41,000  Level FlightAware ADS-B
Wed 06:06:37 PM 35.4600 -95.0670 44° Northeast 486 559 41,000  Level FlightAware ADS-B
Wed 06:07:21 PM 35.5320 -94.9810 44° Northeast 484 557 41,000  Level FlightAware ADS-B
Wed 06:08:01 PM 35.5940 -94.9080 44° Northeast 483 556 41,000  Level FlightAware ADS-B
Wed 06:08:37 PM 35.6530 -94.8370 44° Northeast 478 550 41,000  Level FlightAware ADS-B
Wed 06:09:17 PM 35.7190 -94.7590 44° Northeast 478 550 41,000  Level FlightAware ADS-B
Wed 06:09:59 PM 35.7850 -94.6800 44° Northeast 479 551 41,000  Level FlightAware ADS-B
Wed 06:10:43 PM 35.8540 -94.5970 44° Northeast 479 551 41,000  Level FlightAware ADS-B
Wed 06:11:46 PM 35.9460 -94.4850 45° Northeast 475 547 41,000  Level FlightAware ADS-B
Wed 06:12:27 PM 36.0180 -94.3980 44° Northeast 473 544 41,000  Level FlightAware ADS-B
Wed 06:13:07 PM 36.0800 -94.3240 44° Northeast 473 544 41,000  Level FlightAware ADS-B
Wed 06:13:49 PM 36.1450 -94.2450 44° Northeast 472 543 41,000  Level FlightAware ADS-B
Wed 06:14:31 PM 36.2110 -94.1650 44° Northeast 472 543 41,000  Level FlightAware ADS-B
Wed 06:15:13 PM 36.2840 -94.0950 38° Northeast 475 547 41,000  Level FlightAware ADS-B
Wed 06:15:57 PM 36.3680 -94.0370 29° Northeast 476 548 41,000  Level FlightAware ADS-B
Wed 06:16:37 PM 36.4460 -93.9820 30° Northeast 477 549 41,000  Level FlightAware ADS-B
Wed 06:17:13 PM 36.5130 -93.9350 29° Northeast 478 550 41,000  Level FlightAware ADS-B
Wed 06:17:53 PM 36.5920 -93.8790 30° Northeast 481 554 41,000  Level FlightAware ADS-B
Wed 06:18:36 PM 36.6750 -93.8210 29° Northeast 484 557 41,000  Level FlightAware ADS-B
Wed 06:19:13 PM 36.7480 -93.7690 30° Northeast 485 558 41,000  Level FlightAware ADS-B
Wed 06:19:53 PM 36.8250 -93.7140 30° Northeast 486 559 41,000  Level FlightAware ADS-B
Wed 06:22:46 PM 37.1340 -93.4940 30° Northeast 489 563 41,000  Level FlightAware ADS-B
Wed 06:24:06 PM 37.2960 -93.3770 30° Northeast 490 564 41,000  Level FlightAware ADS-B
Wed 06:24:53 PM 37.4080 -93.2860 33° Northeast 487 560 41,000  Level FlightAware ADS-B
Wed 06:25:37 PM 37.4910 -93.2100 36° Northeast 490 564 41,000  Level FlightAware ADS-B
Wed 06:26:13 PM 37.5550 -93.1500 37° Northeast 490 564 41,000  Level FlightAware ADS-B
Wed 06:26:57 PM 37.6350 -93.0760 36° Northeast 490 564 41,000  Level FlightAware ADS-B
Wed 06:27:37 PM 37.7080 -93.0090 36° Northeast 491 565 41,000  Level FlightAware ADS-B
Wed 06:28:21 PM 37.7890 -92.9330 37° Northeast 490 564 41,000  Level FlightAware ADS-B
Wed 06:29:05 PM 37.8690 -92.8580 36° Northeast 489 563 41,000  Level FlightAware ADS-B
Wed 06:29:41 PM 37.9360 -92.7960 36° Northeast 490 564 41,000  Level FlightAware ADS-B
Wed 06:30:22 PM 38.0090 -92.7270 37° Northeast 491 565 41,000  Level FlightAware ADS-B
Wed 06:31:02 PM 38.0810 -92.6590 37° Northeast 491 565 41,000  Level FlightAware ADS-B
Wed 06:31:37 PM 38.1460 -92.5980 36° Northeast 493 567 41,000  Level FlightAware ADS-B
Wed 06:32:21 PM 38.2230 -92.5250 37° Northeast 493 567 41,000  Level FlightAware ADS-B
Wed 06:32:59 PM 38.2950 -92.4570 37° Northeast 491 565 41,000  Level FlightAware ADS-B
Wed 06:33:59 PM 38.3990 -92.3590 36° Northeast 492 566 41,000  Level FlightAware ADS-B
Wed 06:34:36 PM 38.4570 -92.3050 36° Northeast 492 566 41,000  Level FlightAware ADS-B
Wed 06:35:24 PM 38.5320 -92.2350 36° Northeast 492 566 41,000  Level FlightAware ADS-B
Wed 06:36:07 PM 38.6360 -92.1310 38° Northeast 491 565 41,000  Level FlightAware ADS-B
Wed 06:36:36 PM 38.6870 -92.0820 37° Northeast 492 566 41,000  Level FlightAware ADS-B
Wed 06:37:25 PM 38.7650 -92.0070 37° Northeast 492 566 41,000  Level FlightAware ADS-B
Wed 06:37:59 PM 38.8170 -91.9560 37° Northeast 492 566 41,000  Level FlightAware ADS-B
Wed 06:38:35 PM 38.8730 -91.9020 37° Northeast 492 566 41,000  Level FlightAware ADS-B
Wed 06:39:22 PM 38.9900 -91.7880 37° Northeast 491 565 41,000  Level FlightAware ADS-B
Wed 06:40:01 PM 39.0600 -91.7200 37° Northeast 490 564 41,000  Level FlightAware ADS-B
Wed 06:40:45 PM 39.1410 -91.6410 37° Northeast 491 565 41,000  Level FlightAware ADS-B
Wed 06:41:27 PM 39.2040 -91.5800 37° Northeast 491 565 41,000  Level FlightAware ADS-B
Wed 06:42:10 PM 39.2940 -91.4910 37° Northeast 487 560 41,000 -434 Level FlightAware ADS-B
Wed 06:42:50 PM 39.3640 -91.4230 37° Northeast 488 562 40,400 -1,357 Descending FlightAware ADS-B
Wed 06:43:34 PM 39.4450 -91.3430 37° Northeast 494 568 39,100 -840 Descending FlightAware ADS-B
Wed 06:44:30 PM 39.5450 -91.2420 38° Northeast 494 568 39,000 -63 Descending FlightAware ADS-B
Wed 06:45:10 PM 39.6200 -91.1690 37° Northeast 496 571 39,000  Level FlightAware ADS-B
Wed 06:46:06 PM 39.7200 -91.0680 38° Northeast 496 571 39,000  Level FlightAware ADS-B
Wed 06:46:50 PM 39.7990 -90.9900 37° Northeast 497 572 39,000  Level FlightAware ADS-B
Wed 06:47:31 PM 39.8630 -90.9260 38° Northeast 497 572 39,000  Level FlightAware ADS-B
Wed 06:48:14 PM 39.9510 -90.8360 38° Northeast 497 572 39,000 -651 Level FlightAware ADS-B
Wed 06:48:54 PM 40.0260 -90.7610 37° Northeast 495 570 38,100 -1,786 Descending FlightAware ADS-B
Wed 06:49:38 PM 40.1040 -90.6820 38° Northeast 495 570 36,500 -2,400 Descending FlightAware ADS-B
Wed 06:50:14 PM 40.1710 -90.6140 38° Northeast 497 572 34,900 -2,494 Descending FlightAware ADS-B
Wed 06:50:55 PM 40.2450 -90.5380 38° Northeast 505 581 33,300 -1,425 Descending FlightAware ADS-B
Wed 06:51:34 PM 40.3190 -90.4630 38° Northeast 511 588 33,000 -225 Descending FlightAware ADS-B
Wed 06:52:15 PM 40.3950 -90.3850 38° Northeast 509 586 33,000  Level FlightAware ADS-B
Wed 06:52:55 PM 40.4690 -90.3080 38° Northeast 509 586 33,000 -225 Level FlightAware ADS-B
Wed 06:53:35 PM 40.5430 -90.2320 38° Northeast 510 587 32,700 -987 Descending FlightAware ADS-B
Wed 06:54:14 PM 40.6120 -90.1610 38° Northeast 516 594 31,700 -1,286 Descending FlightAware ADS-B
Wed 06:54:59 PM 40.6990 -90.0700 38° Northeast 519 597 30,900 -1,129 Descending FlightAware ADS-B
Wed 06:55:39 PM 40.7750 -89.9920 38° Northeast 520 598 30,100 -1,143 Descending FlightAware ADS-B
Wed 06:56:23 PM 40.8570 -89.9060 38° Northeast 521 600 29,300 -1,214 Descending FlightAware ADS-B
Wed 06:57:03 PM 40.9330 -89.8260 38° Northeast 528 608 28,400 -1,446 Descending FlightAware ADS-B
Wed 06:57:46 PM 41.0120 -89.7440 38° Northeast 518 596 27,300 -2,045 Descending FlightAware ADS-B
Wed 06:58:31 PM 41.0980 -89.6530 39° Northeast 504 580 25,400 -2,530 Descending FlightAware ADS-B
Wed 06:59:09 PM 41.1630 -89.5690 44° Northeast 491 565 23,800 -2,370 Descending FlightAware ADS-B
Wed 06:59:52 PM 41.2090 -89.4670 59° Northeast 477 549 22,200 -2,276 Descending FlightAware ADS-B
Wed 07:00:36 PM 41.2560 -89.3510 62° Northeast 469 540 20,500 -2,250 Descending FlightAware ADS-B
Wed 07:01:12 PM 41.2910 -89.2630 62° Northeast 457 526 19,200 -2,189 Descending FlightAware ADS-B
Wed 07:01:50 PM 41.3300 -89.1670 62° Northeast 443 510 17,800 -2,400 Descending FlightAware ADS-B
Wed 07:02:32 PM 41.3700 -89.0670 62° Northeast 436 502 16,000 -2,313 Descending FlightAware ADS-B
Wed 07:03:13 PM 41.4080 -88.9710 62° Northeast 422 486 14,600 -2,000 Descending FlightAware ADS-B
Wed 07:03:56 PM 41.4460 -88.8750 62° Northeast 407 468 13,200 -1,977 Descending FlightAware ADS-B
Wed 07:04:41 PM 41.4850 -88.7760 62° Northeast 394 453 11,700 -1,756 Descending FlightAware ADS-B
Wed 07:05:18 PM 41.5160 -88.6980 62° Northeast 378 435 10,800 -723 Descending FlightAware ADS-B
Wed 07:06:04 PM 41.5510 -88.6100 62° Northeast 328 377 10,700 -73 Descending FlightAware ADS-B
Wed 07:06:40 PM 41.5750 -88.5480 63° Northeast 305 351 10,700  Level FlightAware ADS-B
Wed 07:07:20 PM 41.6030 -88.4820 60° Northeast 306 352 10,700  Level FlightAware ADS-B
Wed 07:08:05 PM 41.6400 -88.4140 54° Northeast 303 349 10,700  Level FlightAware ADS-B
Wed 07:08:45 PM 41.6740 -88.3550 52° Northeast 303 349 10,700  Level FlightAware ADS-B
Wed 07:09:24 PM 41.7080 -88.2970 52° Northeast 302 348 10,700 -286 Level FlightAware ADS-B
Wed 07:10:09 PM 41.7470 -88.2300 52° Northeast 302 348 10,300 -658 Descending FlightAware ADS-B
Wed 07:10:37 PM 41.7710 -88.1900 51° Northeast 296 341 9,900 -1,024 Descending FlightAware ADS-B
Wed 07:10:50 PM 41.7810 -88.1720 53° Northeast 294 338 9,600 -764 Descending FlightAware ADS-B
Wed 07:11:32 PM 41.8040 -88.1320 52° Northeast 289 333 9,200 -1,014 Descending FlightAware ADS-B
Wed 07:12:01 PM 41.8370 -88.0730 53° Northeast 284 327 8,400 -1,368 Descending FlightAware ADS-B
Wed 07:12:29 PM 41.8590 -88.0340 53° Northeast 282 325 7,900 -1,286 Descending FlightAware ADS-B
Wed 07:12:57 PM 41.8770 -87.9900 61° Northeast 283 326 7,200 -1,364 Descending FlightAware ADS-B
Wed 07:13:13 PM 41.8790 -87.9630 84° East 284 327 6,900 -682 Descending FlightAware ADS-B
Wed 07:13:41 PM 41.8810 -87.9150 87° East 267 307 6,700 -226 Descending FlightAware ADS-B
Wed 07:14:06 PM 41.8820 -87.8750 88° East 244 281 6,700  Level FlightAware ADS-B
Wed 07:14:33 PM 41.8830 -87.8370 88° East 217 250 6,700 -327 Level FlightAware ADS-B
Wed 07:15:01 PM 41.8840 -87.8010 88° East 205 236 6,400 -750 Descending FlightAware ADS-B
Wed 07:15:29 PM 41.8840 -87.7650 90° East 205 236 6,000 -1,000 Descending FlightAware ADS-B
Wed 07:15:43 PM 41.8840 -87.7470 90° East 205 236 5,700 -1,227 Descending FlightAware ADS-B
Wed 07:16:13 PM 41.8930 -87.7130 70° East 201 231 5,100 -1,116 Descending FlightAware ADS-B
Wed 07:16:26 PM 41.9020 -87.7070 26° Northeast 197 227 4,900 -1,034 Descending FlightAware ADS-B
Wed 07:16:42 PM 41.9190 -87.7050 North 195 224 4,600 -923 Descending FlightAware ADS-B
Wed 07:16:52 PM 41.9280 -87.7050 360° North 192 221 4,500 -1,071 Descending FlightAware ADS-B
Wed 07:17:10 PM 41.9430 -87.7070 354° North 190 219 4,100 -1,400 Descending FlightAware ADS-B
Wed 07:17:22 PM 41.9520 -87.7130 334° Northwest 184 212 3,800 -1,200 Descending FlightAware ADS-B
Wed 07:17:35 PM 41.9580 -87.7240 306° West 180 207 3,600 -1,333 Descending FlightAware ADS-B
Wed 07:18:07 PM 41.9670 -87.7560 291° West 166 191 2,800 -1,607 Descending FlightAware ADS-B
Wed 07:18:31 PM 41.9690 -87.7800 276° West 171 197 2,100 -1,440 Descending FlightAware ADS-B
Wed 07:18:57 PM 41.9690 -87.8070 270° West 155 178 1,600 -1,059 Descending FlightAware ADS-B
Wed 07:19:22 PM 41.9690 -87.8300 270° West 144 166 1,200 -814 Descending FlightAware ADS-B
Wed 07:19:56 PM 41.9690 -87.8590 270° West 138 159 800 -706 Descending FlightAware ADS-B

Login

Don't have an account? Register now (free) for customized features, flight alerts, and more!